sensor_id;sensor_type;location;lat;lon;timestamp;pressure;altitude;pressure_sealevel;temperature;humidity
68137;BME280;54939;50.826;9.030;2023-04-06T00:00:15;98954.25;;;11.08;57.94
68137;BME280;54939;50.826;9.030;2023-04-06T00:00:45;98956.94;;;11.08;57.93
68137;BME280;54939;50.826;9.030;2023-04-06T00:01:16;98954.25;;;11.08;58.25
68137;BME280;54939;50.826;9.030;2023-04-06T00:01:46;98945.41;;;11.07;57.78
68137;BME280;54939;50.826;9.030;2023-04-06T00:02:16;98948.09;;;11.07;58.09
68137;BME280;54939;50.826;9.030;2023-04-06T00:02:47;98954.25;;;11.08;58.44
68137;BME280;54939;50.826;9.030;2023-04-06T00:03:17;98951.59;;;11.08;58.25
68137;BME280;54939;50.826;9.030;2023-04-06T00:03:47;98948.94;;;11.08;58.44
68137;BME280;54939;50.826;9.030;2023-04-06T00:04:17;98957.78;;;11.09;58.13
68137;BME280;54939;50.826;9.030;2023-04-06T00:04:48;98951.59;;;11.08;58.13
68137;BME280;54939;50.826;9.030;2023-04-06T00:05:18;98946.25;;;11.08;58.29
68137;BME280;54939;50.826;9.030;2023-04-06T00:05:49;98948.09;;;11.07;58.09
68137;BME280;54939;50.826;9.030;2023-04-06T00:06:20;98945.41;;;11.07;57.77
68137;BME280;54939;50.826;9.030;2023-04-06T00:06:50;98944.56;;;11.07;57.80
68137;BME280;54939;50.826;9.030;2023-04-06T00:07:20;98939.22;;;11.07;57.90
68137;BME280;54939;50.826;9.030;2023-04-06T00:07:51;98936.56;;;11.07;58.33
68137;BME280;54939;50.826;9.030;2023-04-06T00:08:22;98942.72;;;11.07;58.23
68137;BME280;54939;50.826;9.030;2023-04-06T00:08:53;98938.25;;;11.08;58.46
68137;BME280;54939;50.826;9.030;2023-04-06T00:09:24;98940.06;;;11.07;58.34
68137;BME280;54939;50.826;9.030;2023-04-06T00:09:54;98940.06;;;11.07;58.14
68137;BME280;54939;50.826;9.030;2023-04-06T00:10:25;98941.91;;;11.07;58.05
68137;BME280;54939;50.826;9.030;2023-04-06T00:10:56;98932.88;;;11.08;58.29
68137;BME280;54939;50.826;9.030;2023-04-06T00:11:26;98945.41;;;11.07;58.11
68137;BME280;54939;50.826;9.030;2023-04-06T00:11:57;98941.91;;;11.07;58.21
68137;BME280;54939;50.826;9.030;2023-04-06T00:12:27;98933.88;;;11.07;58.13
68137;BME280;54939;50.826;9.030;2023-04-06T00:12:58;98934.56;;;11.09;58.20
68137;BME280;54939;50.826;9.030;2023-04-06T00:13:28;98936.56;;;11.07;57.96
68137;BME280;54939;50.826;9.030;2023-04-06T00:13:58;98936.56;;;11.07;57.76
68137;BME280;54939;50.826;9.030;2023-04-06T00:14:29;98937.41;;;11.07;58.29
68137;BME280;54939;50.826;9.030;2023-04-06T00:14:59;98941.06;;;11.06;58.14
68137;BME280;54939;50.826;9.030;2023-04-06T00:15:31;98930.22;;;11.08;58.23
68137;BME280;54939;50.826;9.030;2023-04-06T00:16:01;98935.56;;;11.08;58.29
68137;BME280;54939;50.826;9.030;2023-04-06T00:16:31;98935.56;;;11.08;58.28
68137;BME280;54939;50.826;9.030;2023-04-06T00:17:02;98932.03;;;11.07;58.36
68137;BME280;54939;50.826;9.030;2023-04-06T00:17:32;98932.88;;;11.08;58.25
68137;BME280;54939;50.826;9.030;2023-04-06T00:18:02;98936.56;;;11.07;58.09
68137;BME280;54939;50.826;9.030;2023-04-06T00:18:32;98932.88;;;11.08;58.16
68137;BME280;54939;50.826;9.030;2023-04-06T00:19:03;98931.22;;;11.07;58.33
68137;BME280;54939;50.826;9.030;2023-04-06T00:19:33;98932.88;;;11.08;58.31
68137;BME280;54939;50.826;9.030;2023-04-06T00:20:03;98930.38;;;11.06;58.28
68137;BME280;54939;50.826;9.030;2023-04-06T00:20:34;98932.88;;;11.08;58.33
68137;BME280;54939;50.826;9.030;2023-04-06T00:21:04;98929.38;;;11.07;58.32
68137;BME280;54939;50.826;9.030;2023-04-06T00:21:35;98934.72;;;11.07;57.97
68137;BME280;54939;50.826;9.030;2023-04-06T00:22:05;98931.22;;;11.07;58.38
68137;BME280;54939;50.826;9.030;2023-04-06T00:22:35;98935.72;;;11.06;58.07
68137;BME280;54939;50.826;9.030;2023-04-06T00:23:06;98928.53;;;11.07;58.33
68137;BME280;54939;50.826;9.030;2023-04-06T00:23:36;98930.38;;;11.06;57.99
68137;BME280;54939;50.826;9.030;2023-04-06T00:24:06;98925.88;;;11.07;58.22
68137;BME280;54939;50.826;9.030;2023-04-06T00:24:36;98925.88;;;11.07;58.08
68137;BME280;54939;50.826;9.030;2023-04-06T00:25:06;98925.03;;;11.06;57.89
68137;BME280;54939;50.826;9.030;2023-04-06T00:25:37;98918.88;;;11.06;58.26
68137;BME280;54939;50.826;9.030;2023-04-06T00:26:10;98927.69;;;11.06;58.23
68137;BME280;54939;50.826;9.030;2023-04-06T00:26:40;98919.69;;;11.06;58.24
68137;BME280;54939;50.826;9.030;2023-04-06T00:27:11;98925.03;;;11.06;58.21
68137;BME280;54939;50.826;9.030;2023-04-06T00:27:41;98930.38;;;11.06;58.36
68137;BME280;54939;50.826;9.030;2023-04-06T00:28:11;98919.69;;;11.06;57.98
68137;BME280;54939;50.826;9.030;2023-04-06T00:28:41;98923.19;;;11.07;58.27
68137;BME280;54939;50.826;9.030;2023-04-06T00:29:11;98913.53;;;11.06;58.22
68137;BME280;54939;50.826;9.030;2023-04-06T00:29:43;98924.03;;;11.07;58.41
68137;BME280;54939;50.826;9.030;2023-04-06T00:30:13;98927.69;;;11.06;58.36
68137;BME280;54939;50.826;9.030;2023-04-06T00:30:43;98922.34;;;11.06;58.16
68137;BME280;54939;50.826;9.030;2023-04-06T00:31:13;98922.34;;;11.06;58.22
68137;BME280;54939;50.826;9.030;2023-04-06T00:31:44;98922.34;;;11.06;58.05
68137;BME280;54939;50.826;9.030;2023-04-06T00:32:14;98920.53;;;11.07;58.25
68137;BME280;54939;50.826;9.030;2023-04-06T00:32:44;98920.69;;;11.05;58.05
68137;BME280;54939;50.826;9.030;2023-04-06T00:33:15;98916.19;;;11.06;58.49
68137;BME280;54939;50.826;9.030;2023-04-06T00:33:45;98923.19;;;11.07;58.03
68137;BME280;54939;50.826;9.030;2023-04-06T00:34:15;98920.69;;;11.05;58.02
68137;BME280;54939;50.826;9.030;2023-04-06T00:34:46;98923.38;;;11.05;58.41
68137;BME280;54939;50.826;9.030;2023-04-06T00:35:16;98925.03;;;11.06;58.36
68137;BME280;54939;50.826;9.030;2023-04-06T00:35:46;98923.19;;;11.07;58.36
68137;BME280;54939;50.826;9.030;2023-04-06T00:36:16;98926.88;;;11.06;58.42
68137;BME280;54939;50.826;9.030;2023-04-06T00:36:47;98918.88;;;11.06;58.38
68137;BME280;54939;50.826;9.030;2023-04-06T00:37:17;98920.69;;;11.05;58.34
68137;BME280;54939;50.826;9.030;2023-04-06T00:37:47;98924.22;;;11.06;58.29
68137;BME280;54939;50.826;9.030;2023-04-06T00:38:21;98921.53;;;11.06;57.61
68137;BME280;54939;50.826;9.030;2023-04-06T00:38:51;98919.00;;;11.04;58.45
68137;BME280;54939;50.826;9.030;2023-04-06T00:39:21;98921.69;;;11.04;58.51
68137;BME280;54939;50.826;9.030;2023-04-06T00:39:51;98926.88;;;11.06;58.32
68137;BME280;54939;50.826;9.030;2023-04-06T00:40:21;98924.22;;;11.06;58.43
68137;BME280;54939;50.826;9.030;2023-04-06T00:40:52;98919.84;;;11.05;58.39
68137;BME280;54939;50.826;9.030;2023-04-06T00:41:22;98927.69;;;11.06;58.19
68137;BME280;54939;50.826;9.030;2023-04-06T00:41:52;98926.88;;;11.06;58.06
68137;BME280;54939;50.826;9.030;2023-04-06T00:42:23;98918.03;;;11.05;57.98
68137;BME280;54939;50.826;9.030;2023-04-06T00:42:56;98920.84;;;11.04;57.90
68137;BME280;54939;50.826;9.030;2023-04-06T00:43:26;98913.66;;;11.04;58.17
68137;BME280;54939;50.826;9.030;2023-04-06T00:43:56;98915.50;;;11.04;58.50
68137;BME280;54939;50.826;9.030;2023-04-06T00:44:27;98919.00;;;11.04;58.41
68137;BME280;54939;50.826;9.030;2023-04-06T00:44:58;98913.66;;;11.04;58.17
68137;BME280;54939;50.826;9.030;2023-04-06T00:45:29;98916.19;;;11.06;58.38
68137;BME280;54939;50.826;9.030;2023-04-06T00:45:59;98918.03;;;11.05;58.21
68137;BME280;54939;50.826;9.030;2023-04-06T00:46:30;98916.34;;;11.04;58.09
68137;BME280;54939;50.826;9.030;2023-04-06T00:47:00;98917.19;;;11.05;58.32
68137;BME280;54939;50.826;9.030;2023-04-06T00:47:30;98917.19;;;11.05;58.41
68137;BME280;54939;50.826;9.030;2023-04-06T00:48:00;98918.03;;;11.05;57.81
68137;BME280;54939;50.826;9.030;2023-04-06T00:48:31;98911.84;;;11.05;58.10
68137;BME280;54939;50.826;9.030;2023-04-06T00:49:02;98911.84;;;11.05;58.28
68137;BME280;54939;50.826;9.030;2023-04-06T00:49:33;98916.19;;;11.06;58.05
68137;BME280;54939;50.826;9.030;2023-04-06T00:50:03;98919.69;;;11.06;58.16
68137;BME280;54939;50.826;9.030;2023-04-06T00:50:34;98915.34;;;11.05;57.93
68137;BME280;54939;50.826;9.030;2023-04-06T00:51:04;98908.31;;;11.04;57.90
68137;BME280;54939;50.826;9.030;2023-04-06T00:51:34;98912.81;;;11.04;57.99
68137;BME280;54939;50.826;9.030;2023-04-06T00:52:05;98916.34;;;11.04;58.25
68137;BME280;54939;50.826;9.030;2023-04-06T00:52:35;98914.50;;;11.05;58.10
68137;BME280;54939;50.826;9.030;2023-04-06T00:53:05;98914.66;;;11.03;58.15
68137;BME280;54939;50.826;9.030;2023-04-06T00:53:36;98905.66;;;11.04;58.26
68137;BME280;54939;50.826;9.030;2023-04-06T00:54:06;98907.47;;;11.04;58.46
68137;BME280;54939;50.826;9.030;2023-04-06T00:54:36;98913.66;;;11.04;58.12
68137;BME280;54939;50.826;9.030;2023-04-06T00:55:06;98910.16;;;11.04;57.92
68137;BME280;54939;50.826;9.030;2023-04-06T00:55:38;98907.47;;;11.04;58.02
68137;BME280;54939;50.826;9.030;2023-04-06T00:56:08;98909.31;;;11.03;57.98
68137;BME280;54939;50.826;9.030;2023-04-06T00:56:40;98903.97;;;11.03;58.07
68137;BME280;54939;50.826;9.030;2023-04-06T00:57:11;98911.13;;;11.03;57.96
68137;BME280;54939;50.826;9.030;2023-04-06T00:57:41;98903.97;;;11.03;58.12
68137;BME280;54939;50.826;9.030;2023-04-06T00:58:12;98905.81;;;11.03;57.90
68137;BME280;54939;50.826;9.030;2023-04-06T00:58:42;98896.09;;;11.02;58.09
68137;BME280;54939;50.826;9.030;2023-04-06T00:59:12;98906.63;;;11.03;58.35
68137;BME280;54939;50.826;9.030;2023-04-06T00:59:42;98908.47;;;11.03;57.91
68137;BME280;54939;50.826;9.030;2023-04-06T01:00:13;98903.97;;;11.03;58.23
68137;BME280;54939;50.826;9.030;2023-04-06T01:00:43;98908.47;;;11.03;58.22
68137;BME280;54939;50.826;9.030;2023-04-06T01:01:14;98899.63;;;11.02;58.41
68137;BME280;54939;50.826;9.030;2023-04-06T01:01:45;98898.63;;;11.03;58.45
68137;BME280;54939;50.826;9.030;2023-04-06T01:02:15;98902.16;;;11.04;58.22
68137;BME280;54939;50.826;9.030;2023-04-06T01:02:45;98893.28;;;11.03;58.57
68137;BME280;54939;50.826;9.030;2023-04-06T01:03:16;98902.97;;;11.04;58.60
68137;BME280;54939;50.826;9.030;2023-04-06T01:03:46;98896.78;;;11.04;58.05
68137;BME280;54939;50.826;9.030;2023-04-06T01:04:20;98897.63;;;11.04;58.16
68137;BME280;54939;50.826;9.030;2023-04-06T01:04:52;98901.31;;;11.03;58.31
68137;BME280;54939;50.826;9.030;2023-04-06T01:05:24;98892.44;;;11.03;58.12
68137;BME280;54939;50.826;9.030;2023-04-06T01:05:54;98900.47;;;11.03;58.20
68137;BME280;54939;50.826;9.030;2023-04-06T01:06:28;98896.94;;;11.02;58.14
68137;BME280;54939;50.826;9.030;2023-04-06T01:06:58;98897.94;;;11.01;58.55
68137;BME280;54939;50.826;9.030;2023-04-06T01:07:28;98896.09;;;11.02;58.39
68137;BME280;54939;50.826;9.030;2023-04-06T01:07:58;98896.09;;;11.02;58.17
68137;BME280;54939;50.826;9.030;2023-04-06T01:08:29;98894.28;;;11.02;58.38
68137;BME280;54939;50.826;9.030;2023-04-06T01:08:59;98900.47;;;11.03;58.11
68137;BME280;54939;50.826;9.030;2023-04-06T01:09:29;98898.91;;;11.00;58.11
68137;BME280;54939;50.826;9.030;2023-04-06T01:10:00;98896.94;;;11.02;58.21
68137;BME280;54939;50.826;9.030;2023-04-06T01:10:30;98893.44;;;11.02;58.07
68137;BME280;54939;50.826;9.030;2023-04-06T01:11:01;98899.63;;;11.02;58.21
68137;BME280;54939;50.826;9.030;2023-04-06T01:11:31;98892.44;;;11.03;58.06
68137;BME280;54939;50.826;9.030;2023-04-06T01:12:02;98897.78;;;11.03;57.90
68137;BME280;54939;50.826;9.030;2023-04-06T01:12:33;98894.28;;;11.02;58.31
68137;BME280;54939;50.826;9.030;2023-04-06T01:13:03;98896.09;;;11.02;58.20
68137;BME280;54939;50.826;9.030;2023-04-06T01:13:33;98896.09;;;11.02;58.47
68137;BME280;54939;50.826;9.030;2023-04-06T01:14:04;98892.44;;;11.03;58.27
68137;BME280;54939;50.826;9.030;2023-04-06T01:14:34;98889.91;;;11.01;58.11
68137;BME280;54939;50.826;9.030;2023-04-06T01:15:04;98894.28;;;11.02;58.21
68137;BME280;54939;50.826;9.030;2023-04-06T01:15:36;98898.78;;;11.02;58.31
68137;BME280;54939;50.826;9.030;2023-04-06T01:16:08;98885.41;;;11.02;58.21
68137;BME280;54939;50.826;9.030;2023-04-06T01:16:40;98886.41;;;11.01;58.29
68137;BME280;54939;50.826;9.030;2023-04-06T01:17:10;98894.28;;;11.02;58.11
68137;BME280;54939;50.826;9.030;2023-04-06T01:17:40;98890.75;;;11.02;58.50
68137;BME280;54939;50.826;9.030;2023-04-06T01:18:11;98884.56;;;11.01;58.15
68137;BME280;54939;50.826;9.030;2023-04-06T01:18:41;98888.09;;;11.02;58.11
68137;BME280;54939;50.826;9.030;2023-04-06T01:19:12;98886.41;;;11.01;58.21
68137;BME280;54939;50.826;9.030;2023-04-06T01:19:42;98883.72;;;11.01;58.21
68137;BME280;54939;50.826;9.030;2023-04-06T01:20:14;98884.56;;;11.01;58.07
68137;BME280;54939;50.826;9.030;2023-04-06T01:20:44;98884.56;;;11.01;58.41
68137;BME280;54939;50.826;9.030;2023-04-06T01:21:14;98891.75;;;11.01;58.23
68137;BME280;54939;50.826;9.030;2023-04-06T01:21:45;98881.06;;;11.01;57.94
68137;BME280;54939;50.826;9.030;2023-04-06T01:22:16;98882.75;;;11.02;58.35
68137;BME280;54939;50.826;9.030;2023-04-06T01:22:46;98885.41;;;11.02;58.28
68137;BME280;54939;50.826;9.030;2023-04-06T01:23:17;98875.72;;;11.01;58.33
68137;BME280;54939;50.826;9.030;2023-04-06T01:23:47;98888.22;;;11.00;58.34
68137;BME280;54939;50.826;9.030;2023-04-06T01:24:17;98881.06;;;11.01;58.27
68137;BME280;54939;50.826;9.030;2023-04-06T01:24:47;98886.41;;;11.01;58.32
68137;BME280;54939;50.826;9.030;2023-04-06T01:25:17;98885.56;;;11.00;58.06
68137;BME280;54939;50.826;9.030;2023-04-06T01:25:48;98880.22;;;11.00;57.94
68137;BME280;54939;50.826;9.030;2023-04-06T01:26:18;98882.03;;;11.00;58.20
68137;BME280;54939;50.826;9.030;2023-04-06T01:26:48;98877.72;;;10.99;58.55
68137;BME280;54939;50.826;9.030;2023-04-06T01:27:18;98887.38;;;11.00;58.21
68137;BME280;54939;50.826;9.030;2023-04-06T01:27:48;98888.41;;;10.99;57.91
68137;BME280;54939;50.826;9.030;2023-04-06T01:28:19;98884.72;;;11.00;57.98
68137;BME280;54939;50.826;9.030;2023-04-06T01:28:49;98890.06;;;11.00;58.17
68137;BME280;54939;50.826;9.030;2023-04-06T01:29:19;98886.72;;;10.98;57.91
68137;BME280;54939;50.826;9.030;2023-04-06T01:29:50;98877.72;;;10.99;58.03
68137;BME280;54939;50.826;9.030;2023-04-06T01:30:20;98883.06;;;10.99;58.29
68137;BME280;54939;50.826;9.030;2023-04-06T01:30:50;98883.88;;;10.99;58.29
68137;BME280;54939;50.826;9.030;2023-04-06T01:31:20;98886.56;;;10.99;58.20
68137;BME280;54939;50.826;9.030;2023-04-06T01:31:51;98881.38;;;10.98;57.80
68137;BME280;54939;50.826;9.030;2023-04-06T01:32:21;98887.38;;;11.00;57.72
68137;BME280;54939;50.826;9.030;2023-04-06T01:32:51;98884.91;;;10.98;58.03
68137;BME280;54939;50.826;9.030;2023-04-06T01:33:22;98881.19;;;10.99;58.17
68137;BME280;54939;50.826;9.030;2023-04-06T01:33:52;98883.06;;;10.99;58.35
68137;BME280;54939;50.826;9.030;2023-04-06T01:34:23;98882.22;;;10.98;58.14
68137;BME280;54939;50.826;9.030;2023-04-06T01:34:53;98885.75;;;10.99;58.39
68137;BME280;54939;50.826;9.030;2023-04-06T01:35:25;98876.88;;;10.98;57.96
68137;BME280;54939;50.826;9.030;2023-04-06T01:35:56;98876.88;;;10.98;58.08
68137;BME280;54939;50.826;9.030;2023-04-06T01:36:26;98876.03;;;10.98;58.27
68137;BME280;54939;50.826;9.030;2023-04-06T01:36:56;98880.53;;;10.97;58.35
68137;BME280;54939;50.826;9.030;2023-04-06T01:37:26;98873.50;;;10.96;57.63
68137;BME280;54939;50.826;9.030;2023-04-06T01:37:57;98877.88;;;10.97;58.13
68137;BME280;54939;50.826;9.030;2023-04-06T01:38:27;98875.19;;;10.97;58.04
68137;BME280;54939;50.826;9.030;2023-04-06T01:38:57;98869.84;;;10.97;58.28
68137;BME280;54939;50.826;9.030;2023-04-06T01:39:27;98880.53;;;10.97;58.15
68137;BME280;54939;50.826;9.030;2023-04-06T01:39:58;98872.53;;;10.97;58.38
68137;BME280;54939;50.826;9.030;2023-04-06T01:40:28;98876.03;;;10.98;58.16
68137;BME280;54939;50.826;9.030;2023-04-06T01:40:58;98876.88;;;10.98;58.15
68137;BME280;54939;50.826;9.030;2023-04-06T01:41:29;98877.72;;;10.99;58.14
68137;BME280;54939;50.826;9.030;2023-04-06T01:41:59;98882.22;;;10.98;58.20
68137;BME280;54939;50.826;9.030;2023-04-06T01:42:29;98874.34;;;10.97;58.09
68137;BME280;54939;50.826;9.030;2023-04-06T01:43:00;98876.03;;;10.98;58.25
68137;BME280;54939;50.826;9.030;2023-04-06T01:43:30;98870.69;;;10.98;57.99
68137;BME280;54939;50.826;9.030;2023-04-06T01:44:01;98873.38;;;10.98;57.90
68137;BME280;54939;50.826;9.030;2023-04-06T01:44:31;98874.34;;;10.97;58.02
68137;BME280;54939;50.826;9.030;2023-04-06T01:45:01;98873.38;;;10.98;58.02
68137;BME280;54939;50.826;9.030;2023-04-06T01:45:32;98861.84;;;10.97;58.07
68137;BME280;54939;50.826;9.030;2023-04-06T01:46:02;98870.69;;;10.98;58.33
68137;BME280;54939;50.826;9.030;2023-04-06T01:46:32;98870.69;;;10.98;58.14
68137;BME280;54939;50.826;9.030;2023-04-06T01:47:02;98866.34;;;10.97;58.18
68137;BME280;54939;50.826;9.030;2023-04-06T01:47:33;98869.00;;;10.97;58.43
68137;BME280;54939;50.826;9.030;2023-04-06T01:48:03;98865.50;;;10.96;57.84
68137;BME280;54939;50.826;9.030;2023-04-06T01:48:33;98868.16;;;10.96;57.93
68137;BME280;54939;50.826;9.030;2023-04-06T01:49:03;98867.19;;;10.97;58.24
68137;BME280;54939;50.826;9.030;2023-04-06T01:49:34;98867.34;;;10.96;57.99
68137;BME280;54939;50.826;9.030;2023-04-06T01:50:04;98867.34;;;10.96;58.35
68137;BME280;54939;50.826;9.030;2023-04-06T01:50:36;98869.16;;;10.95;57.78
68137;BME280;54939;50.826;9.030;2023-04-06T01:51:06;98864.81;;;10.94;58.05
68137;BME280;54939;50.826;9.030;2023-04-06T01:51:36;98870.00;;;10.96;58.40
68137;BME280;54939;50.826;9.030;2023-04-06T01:52:06;98865.50;;;10.96;58.26
68137;BME280;54939;50.826;9.030;2023-04-06T01:52:37;98862.81;;;10.96;57.91
68137;BME280;54939;50.826;9.030;2023-04-06T01:53:07;98864.66;;;10.96;58.38
68137;BME280;54939;50.826;9.030;2023-04-06T01:53:37;98870.00;;;10.96;57.93
68137;BME280;54939;50.826;9.030;2023-04-06T01:54:08;98872.66;;;10.96;58.34
68137;BME280;54939;50.826;9.030;2023-04-06T01:54:38;98867.34;;;10.96;57.59
68137;BME280;54939;50.826;9.030;2023-04-06T01:55:08;98861.97;;;10.96;57.45
68137;BME280;54939;50.826;9.030;2023-04-06T01:55:38;98858.63;;;10.94;57.55
68137;BME280;54939;50.826;9.030;2023-04-06T01:56:09;98868.31;;;10.95;57.90
68137;BME280;54939;50.826;9.030;2023-04-06T01:56:39;98868.31;;;10.95;58.02
68137;BME280;54939;50.826;9.030;2023-04-06T01:57:10;98861.28;;;10.94;58.17
68137;BME280;54939;50.826;9.030;2023-04-06T01:57:40;98869.31;;;10.94;58.23
68137;BME280;54939;50.826;9.030;2023-04-06T01:58:11;98868.31;;;10.95;58.42
68137;BME280;54939;50.826;9.030;2023-04-06T01:58:41;98864.81;;;10.94;58.45
68137;BME280;54939;50.826;9.030;2023-04-06T01:59:11;98865.66;;;10.95;57.66
68137;BME280;54939;50.826;9.030;2023-04-06T01:59:42;98868.31;;;10.95;57.57
68137;BME280;54939;50.826;9.030;2023-04-06T02:00:12;98868.31;;;10.95;58.38
68137;BME280;54939;50.826;9.030;2023-04-06T02:00:42;98861.28;;;10.94;57.61
68137;BME280;54939;50.826;9.030;2023-04-06T02:01:13;98860.31;;;10.95;57.76
68137;BME280;54939;50.826;9.030;2023-04-06T02:01:43;98864.81;;;10.94;58.26
68137;BME280;54939;50.826;9.030;2023-04-06T02:02:13;98864.81;;;10.94;58.11
68137;BME280;54939;50.826;9.030;2023-04-06T02:02:43;98861.97;;;10.96;57.88
68137;BME280;54939;50.826;9.030;2023-04-06T02:03:14;98866.50;;;10.95;58.26
68137;BME280;54939;50.826;9.030;2023-04-06T02:03:44;98857.63;;;10.95;57.99
68137;BME280;54939;50.826;9.030;2023-04-06T02:04:15;98857.63;;;10.95;58.09
68137;BME280;54939;50.826;9.030;2023-04-06T02:04:45;98863.13;;;10.93;58.03
68137;BME280;54939;50.826;9.030;2023-04-06T02:05:15;98858.63;;;10.94;57.54
68137;BME280;54939;50.826;9.030;2023-04-06T02:05:45;98867.63;;;10.93;58.07
68137;BME280;54939;50.826;9.030;2023-04-06T02:06:16;98859.59;;;10.93;57.64
68137;BME280;54939;50.826;9.030;2023-04-06T02:06:46;98862.28;;;10.93;57.93
68137;BME280;54939;50.826;9.030;2023-04-06T02:07:16;98865.78;;;10.93;58.34
68137;BME280;54939;50.826;9.030;2023-04-06T02:07:46;98856.94;;;10.93;57.81
68137;BME280;54939;50.826;9.030;2023-04-06T02:08:16;98860.44;;;10.93;57.90
68137;BME280;54939;50.826;9.030;2023-04-06T02:08:47;98859.59;;;10.93;58.06
68137;BME280;54939;50.826;9.030;2023-04-06T02:09:17;98859.59;;;10.93;58.11
68137;BME280;54939;50.826;9.030;2023-04-06T02:09:47;98865.78;;;10.93;57.71
68137;BME280;54939;50.826;9.030;2023-04-06T02:10:17;98862.44;;;10.91;58.09
68137;BME280;54939;50.826;9.030;2023-04-06T02:10:48;98866.63;;;10.94;58.29
68137;BME280;54939;50.826;9.030;2023-04-06T02:11:18;98862.28;;;10.93;57.79
68137;BME280;54939;50.826;9.030;2023-04-06T02:11:48;98867.63;;;10.93;58.04
68137;BME280;54939;50.826;9.030;2023-04-06T02:12:18;98864.94;;;10.93;57.46
68137;BME280;54939;50.826;9.030;2023-04-06T02:12:48;98861.28;;;10.94;57.97
68137;BME280;54939;50.826;9.030;2023-04-06T02:13:19;98862.44;;;10.91;57.74
68137;BME280;54939;50.826;9.030;2023-04-06T02:13:49;98863.28;;;10.92;57.79
68137;BME280;54939;50.826;9.030;2023-04-06T02:14:20;98862.44;;;10.91;57.67
68137;BME280;54939;50.826;9.030;2023-04-06T02:14:50;98863.28;;;10.92;57.71
68137;BME280;54939;50.826;9.030;2023-04-06T02:15:20;98856.13;;;10.92;57.69
68137;BME280;54939;50.826;9.030;2023-04-06T02:15:50;98857.94;;;10.92;57.24
68137;BME280;54939;50.826;9.030;2023-04-06T02:16:21;98863.28;;;10.92;57.16
68137;BME280;54939;50.826;9.030;2023-04-06T02:16:51;98850.94;;;10.91;57.33
68137;BME280;54939;50.826;9.030;2023-04-06T02:17:21;98860.63;;;10.92;57.17
68137;BME280;54939;50.826;9.030;2023-04-06T02:17:51;98862.44;;;10.91;57.64
68137;BME280;54939;50.826;9.030;2023-04-06T02:18:22;98862.44;;;10.91;57.93
68137;BME280;54939;50.826;9.030;2023-04-06T02:18:52;98862.44;;;10.91;57.49
68137;BME280;54939;50.826;9.030;2023-04-06T02:19:22;98860.78;;;10.90;57.26
68137;BME280;54939;50.826;9.030;2023-04-06T02:19:52;98865.13;;;10.91;58.05
68137;BME280;54939;50.826;9.030;2023-04-06T02:20:22;98863.28;;;10.92;57.78
68137;BME280;54939;50.826;9.030;2023-04-06T02:20:53;98869.47;;;10.92;57.44
68137;BME280;54939;50.826;9.030;2023-04-06T02:21:23;98868.63;;;10.92;58.20
68137;BME280;54939;50.826;9.030;2023-04-06T02:21:54;98864.28;;;10.91;57.84
68137;BME280;54939;50.826;9.030;2023-04-06T02:22:24;98867.78;;;10.91;57.10
68137;BME280;54939;50.826;9.030;2023-04-06T02:22:56;98866.13;;;10.90;56.78
68137;BME280;54939;50.826;9.030;2023-04-06T02:23:26;98858.09;;;10.90;57.32
68137;BME280;54939;50.826;9.030;2023-04-06T02:23:56;98864.44;;;10.89;57.47
68137;BME280;54939;50.826;9.030;2023-04-06T02:24:26;98866.13;;;10.90;57.26
68137;BME280;54939;50.826;9.030;2023-04-06T02:24:57;98865.28;;;10.90;57.50
68137;BME280;54939;50.826;9.030;2023-04-06T02:25:27;98857.25;;;10.90;57.77
68137;BME280;54939;50.826;9.030;2023-04-06T02:25:57;98861.75;;;10.89;58.01
68137;BME280;54939;50.826;9.030;2023-04-06T02:26:28;98861.63;;;10.91;57.29
68137;BME280;54939;50.826;9.030;2023-04-06T02:26:58;98861.75;;;10.89;58.24
68137;BME280;54939;50.826;9.030;2023-04-06T02:27:28;98857.25;;;10.90;57.66
68137;BME280;54939;50.826;9.030;2023-04-06T02:27:59;98859.94;;;10.90;57.65
68137;BME280;54939;50.826;9.030;2023-04-06T02:28:29;98859.09;;;10.89;57.25
68137;BME280;54939;50.826;9.030;2023-04-06T02:28:59;98857.41;;;10.88;58.03
68137;BME280;54939;50.826;9.030;2023-04-06T02:29:31;98858.25;;;10.89;57.40
68137;BME280;54939;50.826;9.030;2023-04-06T02:30:02;98857.41;;;10.88;57.80
68137;BME280;54939;50.826;9.030;2023-04-06T02:30:32;98852.06;;;10.88;57.39
68137;BME280;54939;50.826;9.030;2023-04-06T02:31:03;98864.44;;;10.89;57.33
68137;BME280;54939;50.826;9.030;2023-04-06T02:31:33;98858.25;;;10.89;57.20
68137;BME280;54939;50.826;9.030;2023-04-06T02:32:03;98857.41;;;10.88;57.04
68137;BME280;54939;50.826;9.030;2023-04-06T02:32:33;98858.25;;;10.89;57.40
68137;BME280;54939;50.826;9.030;2023-04-06T02:33:03;98857.41;;;10.88;57.49
68137;BME280;54939;50.826;9.030;2023-04-06T02:33:34;98860.06;;;10.88;57.33
68137;BME280;54939;50.826;9.030;2023-04-06T02:34:04;98866.25;;;10.89;58.06
68137;BME280;54939;50.826;9.030;2023-04-06T02:34:35;98862.75;;;10.88;58.04
68137;BME280;54939;50.826;9.030;2023-04-06T02:35:05;98861.75;;;10.89;57.56
68137;BME280;54939;50.826;9.030;2023-04-06T02:35:35;98857.41;;;10.88;57.73
68137;BME280;54939;50.826;9.030;2023-04-06T02:36:06;98861.91;;;10.88;57.76
68137;BME280;54939;50.826;9.030;2023-04-06T02:36:36;98867.25;;;10.88;57.87
68137;BME280;54939;50.826;9.030;2023-04-06T02:37:06;98857.41;;;10.88;57.84
68137;BME280;54939;50.826;9.030;2023-04-06T02:37:36;98858.38;;;10.87;57.77
68137;BME280;54939;50.826;9.030;2023-04-06T02:38:06;98862.75;;;10.88;57.61
68137;BME280;54939;50.826;9.030;2023-04-06T02:38:37;98859.22;;;10.88;57.37
68137;BME280;54939;50.826;9.030;2023-04-06T02:39:07;98856.56;;;10.88;57.24
68137;BME280;54939;50.826;9.030;2023-04-06T02:39:37;98856.56;;;10.88;57.38
68137;BME280;54939;50.826;9.030;2023-04-06T02:40:07;98856.56;;;10.88;57.28
68137;BME280;54939;50.826;9.030;2023-04-06T02:40:38;98858.25;;;10.89;57.27
68137;BME280;54939;50.826;9.030;2023-04-06T02:41:08;98854.03;;;10.86;57.91